Time;durP1;ratioP1;P1;durP2;ratioP2;P2;SDS_P1;SDS_P2;PMS_P1;PMS_P2;Temp;Humidity;BMP_temperature;BMP_pressure;BME280_temperature;BME280_humidity;BME280_pressure;Samples;Min_cycle;Max_cycle;Signal;HPM_P1;HPM_P2
2023/06/07 00:01:08;;;;;;;4.63;2.42;;;;;;;18.49;100.00;97503.72;5112914;28;20064;-77
2023/06/07 00:03:34;;;;;;;;;;;;;;;18.51;100.00;97515.28;5089036;28;20058;-76
2023/06/07 00:06:02;;;;;;;4.15;2.58;;;;;;;18.49;100.00;97500.16;5100953;28;19955;-75
2023/06/07 00:08:31;;;;;;;4.32;2.67;;;;;;;18.41;100.00;97504.41;5098434;28;20024;-77
2023/06/07 00:10:57;;;;;;;4.50;2.40;;;;;;;18.38;100.00;97509.28;5111346;28;20498;-75
2023/06/07 00:13:23;;;;;;;7.63;2.33;;;;;;;18.25;100.00;97501.44;5130015;28;20121;-76
2023/06/07 00:15:49;;;;;;;4.25;2.80;;;;;;;18.35;100.00;97523.97;5112956;28;20031;-77
2023/06/07 00:18:15;;;;;;;4.22;2.20;;;;;;;18.28;100.00;97517.41;5094576;28;20060;-75
2023/06/07 00:20:45;;;;;;;5.95;2.40;;;;;;;18.28;100.00;97524.66;5125576;27;20026;-77
2023/06/07 00:23:14;;;;;;;6.28;2.58;;;;;;;18.18;100.00;97513.00;5116519;27;20027;-76
2023/06/07 00:25:40;;;;;;;6.97;2.75;;;;;;;18.19;100.00;97514.69;5111804;27;20058;-76
2023/06/07 00:28:06;;;;;;;4.88;2.67;;;;;;;18.17;100.00;97519.41;5133638;27;20027;-75
2023/06/07 00:30:31;;;;;;;4.18;2.50;;;;;;;18.13;100.00;97520.69;5101836;28;20076;-76
2023/06/07 00:32:57;;;;;;;5.88;2.60;;;;;;;18.17;100.00;97516.69;5104301;28;20491;-77
2023/06/07 00:35:22;;;;;;;3.33;2.58;;;;;;;18.18;100.00;97524.66;5131730;27;20026;-75
2023/06/07 00:37:48;;;;;;;4.88;2.97;;;;;;;18.08;100.00;97521.13;5116301;27;20027;-75
2023/06/07 00:40:14;;;;;;;6.60;3.00;;;;;;;18.05;100.00;97523.25;5116137;27;20027;-75
2023/06/07 00:42:40;;;;;;;5.95;2.65;;;;;;;18.00;100.00;97525.50;5109326;28;20035;-75
2023/06/07 00:45:06;;;;;;;3.58;2.70;;;;;;;17.97;100.00;97532.06;5131519;27;20030;-74
2023/06/07 00:47:32;;;;;;;6.47;3.00;;;;;;;17.81;100.00;97539.91;5109729;28;20101;-75
2023/06/07 00:49:58;;;;;;;4.82;3.13;;;;;;;17.69;100.00;97549.97;5130149;27;20122;-75
2023/06/07 00:52:24;;;;;;;6.28;3.05;;;;;;;17.62;100.00;97542.56;5115750;27;20167;-75
2023/06/07 00:54:51;;;;;;;11.68;3.28;;;;;;;17.50;100.00;97539.09;5099833;28;20101;-75
2023/06/07 00:57:16;;;;;;;5.57;3.35;;;;;;;17.46;100.00;97558.41;5095410;27;20216;-75
2023/06/07 00:59:42;;;;;;;4.70;3.22;;;;;;;17.32;100.00;97543.41;5112115;28;20063;-75
2023/06/07 01:02:08;;;;;;;5.93;3.05;;;;;;;17.32;100.00;97538.84;5113803;27;20027;-75
2023/06/07 01:04:34;;;;;;;4.95;3.20;;;;;;;17.42;100.00;97540.75;5115575;27;20107;-75
2023/06/07 01:07:02;;;;;;;6.93;3.47;;;;;;;17.37;100.00;97522.25;5115568;27;20023;-75
2023/06/07 01:09:28;;;;;;;6.45;3.17;;;;;;;17.51;100.00;97518.28;5115716;27;20494;-75
2023/06/07 01:11:55;;;;;;;3.67;2.75;;;;;;;17.60;100.00;97539.13;5102411;28;20055;-76
2023/06/07 01:14:21;;;;;;;4.65;3.30;;;;;;;17.51;100.00;97540.78;5094902;28;20027;-76
2023/06/07 01:16:50;;;;;;;7.57;3.33;;;;;;;17.48;100.00;97543.75;5110165;27;20030;-76
2023/06/07 01:19:27;;;;;;;5.22;3.22;;;;;;;17.36;100.00;97547.56;5096457;28;20031;-76
2023/06/07 01:22:03;;;;;;;12.00;3.38;;;;;;;17.29;100.00;97540.97;5090517;28;20089;-76
2023/06/07 01:24:29;;;;;;;8.98;3.30;;;;;;;17.28;100.00;97550.97;5120390;27;20051;-75
2023/06/07 01:26:57;;;;;;;9.18;3.40;;;;;;;17.27;100.00;97548.38;5128106;27;20063;-75
2023/06/07 01:29:24;;;;;;;5.68;3.20;;;;;;;17.32;100.00;97559.63;5115303;27;20062;-77
2023/06/07 01:31:51;;;;;;;14.55;3.78;;;;;;;17.20;100.00;97560.72;5111577;28;20497;-75
2023/06/07 01:34:17;;;;;;;12.45;4.57;;;;;;;17.22;100.00;97559.63;5093985;28;20036;-75
2023/06/07 01:36:43;;;;;;;11.55;4.53;;;;;;;17.02;100.00;97555.09;5114101;27;20027;-75
2023/06/07 01:39:10;;;;;;;11.68;4.75;;;;;;;16.98;100.00;97559.03;5108791;28;20080;-76
2023/06/07 01:41:36;;;;;;;12.13;4.30;;;;;;;16.96;100.00;97560.19;5108421;28;20064;-76
2023/06/07 01:44:01;;;;;;;7.18;4.18;;;;;;;16.88;100.00;97565.41;5123240;27;20506;-75
2023/06/07 01:46:28;;;;;;;11.27;4.68;;;;;;;16.88;100.00;97560.00;5121488;27;20019;-76
2023/06/07 01:48:53;;;;;;;11.90;4.13;;;;;;;16.92;100.00;97565.00;5128429;27;20525;-76
2023/06/07 01:51:19;;;;;;;10.68;4.15;;;;;;;16.98;100.00;97577.97;5094599;28;20024;-77
2023/06/07 01:53:47;;;;;;;5.90;3.92;;;;;;;16.88;100.00;97551.91;5111468;28;20463;-74
2023/06/07 01:56:25;;;;;;;8.55;4.07;;;;;;;16.99;100.00;97546.41;5105419;28;20130;-75
2023/06/07 01:59:01;;;;;;;8.07;3.80;;;;;;;17.00;100.00;97562.50;5094459;28;20027;-77
2023/06/07 02:01:55;;;;;;;10.10;4.10;;;;;;;16.94;100.00;97545.97;5102698;28;20035;-75
2023/06/07 02:04:21;;;;;;;9.00;3.42;;;;;;;16.93;100.00;97538.81;5108012;27;20114;-75
2023/06/07 02:06:48;;;;;;;7.93;3.55;;;;;;;16.98;100.00;97544.72;5097757;27;20110;-75
2023/06/07 02:09:15;;;;;;;4.40;3.10;;;;;;;17.06;100.00;97561.94;5128421;27;20518;-76
2023/06/07 02:11:41;;;;;;;6.03;3.00;;;;;;;17.14;100.00;97539.63;5129456;27;20019;-76
2023/06/07 02:14:07;;;;;;;6.40;3.58;;;;;;;17.22;100.00;97543.41;5106048;27;20084;-75
2023/06/07 02:16:46;;;;;;;5.68;3.35;;;;;;;17.33;100.00;97534.31;5111272;27;20031;-77
2023/06/07 02:19:13;;;;;;;8.45;3.25;;;;;;;17.30;100.00;97537.28;5102637;27;20493;-76
2023/06/07 02:21:39;;;;;;;10.95;4.25;;;;;;;17.38;100.00;97544.72;5114238;27;20019;-76
2023/06/07 02:24:08;;;;;;;7.80;3.28;;;;;;;17.38;100.00;97540.16;5127113;27;20031;-75
2023/06/07 02:26:34;;;;;;;12.05;3.63;;;;;;;17.40;100.00;97543.59;5094169;28;20042;-75
2023/06/07 02:28:59;;;;;;;11.10;3.72;;;;;;;17.35;100.00;97535.03;5113988;27;20110;-75
2023/06/07 02:31:25;;;;;;;7.78;4.05;;;;;;;17.33;100.00;97569.47;5114023;27;20023;-76
2023/06/07 02:33:51;;;;;;;5.82;3.17;;;;;;;17.26;100.00;97562.88;5111838;27;20558;-75
2023/06/07 02:36:25;;;;;;;10.35;4.03;;;;;;;17.18;100.00;97570.81;5107577;27;20106;-74
2023/06/07 02:38:51;;;;;;;7.30;4.18;;;;;;;16.98;100.00;97563.63;5130992;27;20023;-75
2023/06/07 02:41:17;;;;;;;4.45;3.60;;;;;;;16.99;100.00;97565.31;5113855;27;20042;-76
2023/06/07 02:43:44;;;;;;;10.10;2.85;;;;;;;17.08;100.00;97538.34;5113437;27;20440;-75
2023/06/07 02:46:11;;;;;;;7.53;3.45;;;;;;;17.20;100.00;97536.38;5110150;27;20467;-76
2023/06/07 02:48:37;;;;;;;9.57;3.30;;;;;;;17.22;100.00;97553.34;5108384;27;20031;-75
2023/06/07 02:51:03;;;;;;;4.53;3.45;;;;;;;17.16;100.00;97567.41;5093388;28;20028;-76
2023/06/07 02:53:30;;;;;;;15.95;4.32;;;;;;;16.93;100.00;97572.13;5124732;27;20096;-75
2023/06/07 02:55:55;;;;;;;11.98;3.67;;;;;;;16.88;100.00;97568.09;5101789;28;20035;-74
2023/06/07 02:58:21;;;;;;;8.20;3.97;;;;;;;16.84;100.00;97567.50;5110075;28;20038;-75
2023/06/07 03:00:49;;;;;;;11.43;4.45;;;;;;;16.77;100.00;97578.00;5130319;27;20032;-75
2023/06/07 03:03:16;;;;;;;8.02;4.05;;;;;;;16.83;100.00;97578.47;5113855;27;20037;-74
2023/06/07 03:05:45;;;;;;;34.80;15.13;;;;;;;16.86;100.00;97565.53;5113418;27;20104;-74
2023/06/07 03:08:11;;;;;;;11.75;4.72;;;;;;;16.86;100.00;97570.94;5119297;27;20027;-74
2023/06/07 03:10:36;;;;;;;10.15;4.35;;;;;;;16.87;100.00;97560.97;5111503;28;20034;-75
2023/06/07 03:13:03;;;;;;;5.47;3.83;;;;;;;16.93;100.00;97557.75;5098686;28;20031;-75
2023/06/07 03:15:29;;;;;;;11.90;5.22;;;;;;;16.97;100.00;97561.91;5102725;28;20027;-74
2023/06/07 03:17:54;;;;;;;8.45;4.78;;;;;;;16.89;100.00;97554.44;5107973;28;20633;-75
2023/06/07 03:20:21;;;;;;;5.75;3.75;;;;;;;17.06;100.00;97555.69;5105993;28;20032;-76
2023/06/07 03:22:47;;;;;;;10.82;4.75;;;;;;;16.98;100.00;97560.91;5098813;28;20025;-75
2023/06/07 03:25:13;;;;;;;8.55;4.72;;;;;;;16.95;100.00;97556.63;5126075;28;20398;-75
2023/06/07 03:27:39;;;;;;;16.02;5.47;;;;;;;17.00;100.00;97565.19;5096247;28;20103;-75
2023/06/07 03:30:06;;;;;;;8.30;4.25;;;;;;;17.00;100.00;97562.50;5107693;28;20122;-75
2023/06/07 03:32:32;;;;;;;12.52;5.30;;;;;;;17.02;100.00;97562.34;5127810;27;20494;-77
2023/06/07 03:34:58;;;;;;;12.75;5.55;;;;;;;17.00;100.00;97557.09;5127492;27;20049;-76
2023/06/07 03:37:23;;;;;;;16.20;6.30;;;;;;;17.11;100.00;97566.94;5091587;28;20066;-74
2023/06/07 03:39:49;;;;;;;20.27;6.43;;;;;;;17.15;100.00;97557.56;5098107;28;20107;-74
2023/06/07 03:42:16;;;;;;;15.63;6.18;;;;;;;17.22;100.00;97561.47;5109477;28;20091;-75
2023/06/07 03:44:42;;;;;;;16.02;6.82;;;;;;;17.29;100.00;97560.75;5127514;28;20023;-75
2023/06/07 03:47:07;;;;;;;16.50;5.50;;;;;;;17.42;100.00;97557.81;5091538;28;20095;-75
2023/06/07 03:49:33;;;;;;;11.60;5.00;;;;;;;17.45;100.00;97567.50;5106837;28;20030;-75
2023/06/07 03:51:59;;;;;;;16.95;6.88;;;;;;;17.43;100.00;97570.38;5124193;28;20085;-77
2023/06/07 03:54:24;;;;;;;23.73;4.65;;;;;;;17.45;100.00;97562.09;5127563;27;20462;-76
2023/06/07 03:56:50;;;;;;;11.13;4.18;;;;;;;17.55;100.00;97563.91;5123966;27;20505;-75
2023/06/07 03:59:19;;;;;;;9.82;4.20;;;;;;;17.54;100.00;97564.84;5101492;28;20046;-76
2023/06/07 04:01:45;;;;;;;21.25;8.32;;;;;;;17.57;100.00;97559.19;5109074;27;20054;-74
2023/06/07 04:04:10;;;;;;;18.77;5.45;;;;;;;17.56;100.00;97564.75;5113907;27;20071;-74
2023/06/07 04:06:36;;;;;;;18.65;5.18;;;;;;;17.52;100.00;97576.78;5130068;27;20038;-75
2023/06/07 04:09:03;;;;;;;15.10;4.30;;;;;;;17.52;100.00;97572.25;5130990;27;20035;-76
2023/06/07 04:11:28;;;;;;;22.70;5.10;;;;;;;17.51;100.00;97567.81;5112682;27;20449;-76
2023/06/07 04:13:54;;;;;;;11.73;6.15;;;;;;;17.59;100.00;97568.03;5126041;27;20035;-79
2023/06/07 04:16:19;;;;;;;18.13;7.65;;;;;;;17.71;100.00;97569.63;5093327;28;20104;-75
2023/06/07 04:18:45;;;;;;;10.15;5.15;;;;;;;17.85;100.00;97565.66;5093459;28;20103;-76
2023/06/07 04:21:12;;;;;;;10.75;4.05;;;;;;;18.05;100.00;97558.44;5128143;27;20533;-74
2023/06/07 04:23:38;;;;;;;6.57;3.95;;;;;;;18.19;100.00;97553.47;5113615;27;20038;-80
2023/06/07 04:26:06;;;;;;;10.43;4.22;;;;;;;18.39;100.00;97549.75;5129491;27;20035;-77
2023/06/07 04:28:32;;;;;;;11.48;4.43;;;;;;;18.37;100.00;97550.88;5111673;27;20031;-78
2023/06/07 04:30:58;;;;;;;10.20;4.90;;;;;;;18.59;100.00;97550.63;5107611;27;20406;-78
2023/06/07 04:33:23;;;;;;;31.17;17.85;;;;;;;18.50;100.00;97546.06;5095964;28;20027;-79
2023/06/07 04:35:57;;;;;;;7.85;4.20;;;;;;;18.67;100.00;97553.44;5095041;28;20020;-78
2023/06/07 04:38:23;;;;;;;11.75;4.63;;;;;;;18.70;100.00;97546.91;5115519;27;20495;-76
2023/06/07 04:40:50;;;;;;;16.45;6.00;;;;;;;18.97;100.00;97543.41;5104748;28;20028;-78
2023/06/07 04:43:19;;;;;;;7.63;3.75;;;;;;;19.15;100.00;97544.34;5130142;27;20430;-78
2023/06/07 04:45:55;;;;;;;11.60;3.40;;;;;;;19.12;100.00;97533.81;5128507;27;20135;-78
2023/06/07 04:48:25;;;;;;;5.45;3.78;;;;;;;19.23;100.00;97531.75;5131170;27;20031;-79
2023/06/07 04:50:52;;;;;;;8.20;4.32;;;;;;;19.71;100.00;97533.41;5110596;28;22236;-78
2023/06/07 04:53:19;;;;;;;4.20;3.47;;;;;;;19.83;100.00;97532.19;5112480;28;20106;-78
2023/06/07 04:55:49;;;;;;;6.88;3.60;;;;;;;19.94;100.00;97516.53;5095615;28;20119;-78
2023/06/07 04:58:18;;;;;;;4.28;2.88;;;;;;;20.32;100.00;97520.84;5103889;28;20039;-79
2023/06/07 05:00:45;;;;;;;5.50;3.38;;;;;;;20.38;100.00;97506.66;5103886;28;20027;-78
2023/06/07 05:03:13;;;;;;;4.88;3.00;;;;;;;20.22;100.00;97516.47;5121169;27;20019;-81
2023/06/07 05:05:40;;;;;;;5.35;4.03;;;;;;;20.06;100.00;97521.75;5115873;27;20027;-81
2023/06/07 05:08:06;;;;;;;9.45;3.63;;;;;;;19.79;100.00;97515.34;5099509;28;20024;-81
2023/06/07 05:10:31;;;;;;;10.63;3.70;;;;;;;19.74;100.00;97522.25;5112486;27;20027;-81
2023/06/07 05:12:57;;;;;;;11.38;4.07;;;;;;;19.93;100.00;97525.69;5107967;27;20509;-81
2023/06/07 05:15:23;;;;;;;8.70;4.28;;;;;;;20.00;100.00;97526.78;5125169;27;20046;-81
2023/06/07 05:17:50;;;;;;;8.52;4.00;;;;;;;19.89;100.00;97535.16;5105981;28;20461;-80
2023/06/07 05:20:16;;;;;;;6.07;3.92;;;;;;;19.93;100.00;97533.81;5112591;27;20019;-83
2023/06/07 05:22:42;;;;;;;14.38;3.50;;;;;;;19.99;100.00;97513.38;5104445;28;20024;-82
2023/06/07 05:25:10;;;;;;;16.67;4.78;;;;;;;20.33;100.00;97529.88;5128449;27;20443;-81
2023/06/07 05:27:36;;;;;;;13.75;4.47;;;;;;;20.67;100.00;97538.13;5096936;28;20020;-81
2023/06/07 05:30:07;;;;;;;10.35;4.72;;;;;;;20.88;100.00;97523.19;5109985;28;20024;-80
2023/06/07 05:32:33;;;;;;;16.00;4.00;;;;;;;20.55;100.00;97529.34;5112866;27;20027;-81
2023/06/07 05:34:59;;;;;;;15.80;3.90;;;;;;;20.52;100.00;97532.38;5103870;28;20031;-80
2023/06/07 05:37:25;;;;;;;6.28;3.70;;;;;;;20.62;100.00;97535.88;5101358;27;20034;-80
2023/06/07 05:39:51;;;;;;;9.27;4.13;;;;;;;20.87;100.00;97540.50;5105771;28;20024;-80
2023/06/07 05:42:17;;;;;;;5.55;3.42;;;;;;;20.79;100.00;97545.88;5108451;27;20106;-81
2023/06/07 05:44:45;;;;;;;6.85;4.28;;;;;;;20.98;100.00;97537.50;5104369;28;20110;-80
2023/06/07 05:47:11;;;;;;;24.17;4.55;;;;;;;21.24;100.00;97542.97;5104212;28;20031;-81
2023/06/07 05:49:36;;;;;;;18.52;5.20;;;;;;;20.96;100.00;97531.38;5110857;27;20027;-81
2023/06/07 05:52:02;;;;;;;10.55;5.70;;;;;;;20.85;100.00;97523.50;5115778;27;20027;-81
2023/06/07 05:54:27;;;;;;;10.57;3.78;;;;;;;21.00;100.00;97519.19;5129052;27;20027;-81
2023/06/07 05:56:53;;;;;;;6.40;3.80;;;;;;;20.85;100.00;97517.19;5126124;27;20034;-81
2023/06/07 05:59:18;;;;;;;7.68;4.20;;;;;;;21.26;100.00;97531.91;5127881;27;20015;-81
2023/06/07 06:01:44;;;;;;;12.15;4.45;;;;;;;20.97;100.00;97519.50;5106592;27;20023;-80
2023/06/07 06:04:10;;;;;;;8.73;3.80;;;;;;;20.84;100.00;97527.22;5111984;27;20023;-81
2023/06/07 06:06:38;;;;;;;10.68;5.30;;;;;;;21.26;100.00;97519.16;5095351;27;20023;-81
2023/06/07 06:09:04;;;;;;;10.95;4.22;;;;;;;22.13;100.00;97522.44;5132281;27;20038;-80
2023/06/07 06:11:30;;;;;;;10.93;4.00;;;;;;;23.28;100.00;97500.41;5109071;28;20168;-81
2023/06/07 06:13:55;;;;;;;5.85;3.60;;;;;;;24.04;93.48;97503.31;5102990;27;20110;-82
2023/06/07 06:16:21;;;;;;;6.45;3.35;;;;;;;24.13;92.53;97501.41;5094473;28;20049;-81
2023/06/07 06:18:46;;;;;;;8.73;3.88;;;;;;;25.04;89.52;97494.00;5093048;28;20039;-81
2023/06/07 06:21:12;;;;;;;7.20;4.80;;;;;;;25.25;89.06;97502.38;5122857;27;20050;-80
2023/06/07 06:23:38;;;;;;;8.20;4.18;;;;;;;25.32;86.47;97484.13;5114389;27;20027;-81
2023/06/07 06:26:04;;;;;;;5.95;3.75;;;;;;;24.82;90.60;97500.41;5114602;27;20398;-81
2023/06/07 06:28:29;;;;;;;10.95;5.30;;;;;;;25.67;87.08;97498.13;5131660;27;20023;-82
2023/06/07 06:31:03;;;;;;;6.05;3.45;;;;;;;25.53;81.94;97479.81;5098835;28;20028;-81
2023/06/07 06:33:28;;;;;;;10.75;5.28;;;;;;;25.96;79.50;97481.63;5114621;27;20030;-81
2023/06/07 06:35:54;;;;;;;11.43;4.30;;;;;;;26.60;74.99;97473.47;5120008;27;20688;-81
2023/06/07 06:38:20;;;;;;;8.25;3.67;;;;;;;26.20;73.93;97455.78;5121669;27;20402;-82
2023/06/07 06:40:45;;;;;;;7.85;4.22;;;;;;;26.21;77.67;97477.50;5097377;27;20023;-82
2023/06/07 06:43:11;;;;;;;12.63;3.55;;;;;;;26.65;75.81;97493.78;5114235;27;20023;-82
2023/06/07 06:45:37;;;;;;;13.55;4.68;;;;;;;25.64;82.06;97482.06;5122956;27;20050;-81
2023/06/07 06:48:03;;;;;;;21.83;6.97;;;;;;;25.89;81.09;97475.22;5102145;28;20055;-82
2023/06/07 06:50:31;;;;;;;12.85;4.68;;;;;;;26.09;78.90;97478.19;5110948;28;20024;-82
2023/06/07 06:52:57;;;;;;;11.07;3.67;;;;;;;25.73;80.38;97480.91;5093591;28;20494;-81
2023/06/07 06:55:23;;;;;;;8.57;4.15;;;;;;;26.21;78.43;97485.72;5102179;28;20027;-81
2023/06/07 06:57:49;;;;;;;7.00;3.83;;;;;;;26.18;75.82;97471.59;5094895;28;20027;-81
2023/06/07 07:00:15;;;;;;;10.55;6.03;;;;;;;24.97;84.61;97470.31;5100745;28;20059;-81
2023/06/07 07:02:41;;;;;;;17.80;5.63;;;;;;;24.43;88.58;97467.69;5110197;27;20058;-81
2023/06/07 07:05:07;;;;;;;5.95;3.40;;;;;;;24.86;86.95;97477.09;5127235;27;20059;-80
2023/06/07 07:07:32;;;;;;;5.70;3.65;;;;;;;25.47;83.77;97477.81;5104748;27;20035;-79
2023/06/07 07:09:59;;;;;;;12.02;4.78;;;;;;;25.74;84.08;97478.00;5102977;28;20101;-81
2023/06/07 07:12:24;;;;;;;7.70;3.90;;;;;;;25.51;81.33;97473.66;5114640;27;20062;-80
2023/06/07 07:14:50;;;;;;;8.50;3.88;;;;;;;25.66;78.92;97458.03;5102009;27;20554;-80
2023/06/07 07:17:16;;;;;;;8.85;4.03;;;;;;;26.16;79.13;97479.13;5110342;28;20043;-80
2023/06/07 07:19:41;;;;;;;13.10;4.43;;;;;;;26.08;80.74;97468.28;5114116;28;20127;-80
2023/06/07 07:22:07;;;;;;;13.27;4.38;;;;;;;26.54;74.88;97463.28;5093309;28;20031;-80
2023/06/07 07:24:32;;;;;;;10.55;4.32;;;;;;;26.87;73.53;97464.44;5097415;28;20455;-79
2023/06/07 07:26:58;;;;;;;10.98;4.20;;;;;;;27.54;67.91;97474.84;5093255;28;20027;-79
2023/06/07 07:29:24;;;;;;;12.15;4.53;;;;;;;27.63;69.68;97476.38;5093066;28;20467;-79
2023/06/07 07:31:49;;;;;;;13.88;4.20;;;;;;;27.37;69.95;97464.19;5125110;27;20071;-80
2023/06/07 07:34:15;;;;;;;6.63;4.32;;;;;;;27.11;72.59;97464.00;5114573;28;20114;-78
2023/06/07 07:36:41;;;;;;;12.27;4.00;;;;;;;25.84;74.49;97451.09;5109325;27;20027;-79
2023/06/07 07:39:06;;;;;;;12.35;3.47;;;;;;;26.39;73.31;97464.19;5100831;27;20035;-79
2023/06/07 07:41:35;;;;;;;7.53;3.85;;;;;;;25.73;76.24;97442.53;5117855;27;20110;-79
2023/06/07 07:44:01;;;;;;;8.02;4.30;;;;;;;26.06;77.65;97454.75;5124521;27;20027;-80
2023/06/07 07:46:28;;;;;;;7.07;3.40;;;;;;;26.01;77.84;97462.72;5122680;27;20030;-81
2023/06/07 07:48:53;;;;;;;7.30;3.53;;;;;;;26.93;74.98;97478.22;5123317;27;20118;-81
2023/06/07 07:51:19;;;;;;;3.88;2.72;;;;;;;27.68;67.61;97477.50;5117439;27;20605;-80
2023/06/07 07:53:45;;;;;;;6.43;3.65;;;;;;;27.75;67.57;97469.25;5126867;27;20106;-79
2023/06/07 07:56:11;;;;;;;5.57;3.15;;;;;;;26.81;70.84;97463.34;5133460;27;20095;-80
2023/06/07 07:58:36;;;;;;;7.20;3.47;;;;;;;26.83;73.12;97474.97;5102641;28;20020;-79
2023/06/07 08:01:09;;;;;;;8.40;3.97;;;;;;;26.33;70.44;97454.00;5102058;27;20030;-77
2023/06/07 08:03:34;;;;;;;7.75;3.25;;;;;;;26.35;74.87;97471.13;5117186;27;20065;-80
2023/06/07 08:06:01;;;;;;;6.30;2.88;;;;;;;27.07;68.91;97470.09;5124713;27;20055;-81
2023/06/07 08:08:26;;;;;;;6.80;2.90;;;;;;;27.16;64.39;97452.41;5131186;27;20019;-80
2023/06/07 08:10:52;;;;;;;5.15;3.13;;;;;;;27.55;65.29;97468.31;5117682;27;20035;-80
2023/06/07 08:13:17;;;;;;;9.20;3.10;;;;;;;26.95;66.21;97460.72;5130520;27;20098;-80
2023/06/07 08:15:47;;;;;;;4.38;3.20;;;;;;;27.99;60.94;97469.56;5116003;27;20114;-80
2023/06/07 08:18:12;;;;;;;5.88;2.78;;;;;;;27.98;61.44;97467.03;5106443;27;20438;-79
2023/06/07 08:20:38;;;;;;;4.90;3.00;;;;;;;28.08;65.05;97475.78;5096662;28;20023;-80
2023/06/07 08:23:03;;;;;;;7.65;3.10;;;;;;;27.40;62.91;97458.28;5131390;27;20026;-81
2023/06/07 08:25:29;;;;;;;4.57;2.83;;;;;;;26.72;69.86;97460.91;5127473;27;20442;-80
2023/06/07 08:27:55;;;;;;;6.32;3.33;;;;;;;27.12;69.91;97475.84;5100842;28;20028;-80
2023/06/07 08:30:20;;;;;;;4.07;3.22;;;;;;;27.14;67.12;97471.81;5113769;28;20023;-79
2023/06/07 08:32:46;;;;;;;4.68;2.90;;;;;;;27.06;69.38;97477.50;5096347;28;20024;-80
2023/06/07 08:35:11;;;;;;;6.50;3.05;;;;;;;27.95;65.00;97483.94;5104507;28;20518;-80
2023/06/07 08:37:38;;;;;;;6.93;2.95;;;;;;;27.29;62.37;97453.34;5105737;27;20016;-81
2023/06/07 08:40:05;;;;;;;10.40;3.13;;;;;;;27.15;52.96;97424.09;5099568;28;20024;-80
2023/06/07 08:42:32;;;;;;;4.13;2.58;;;;;;;26.81;53.46;97421.31;5104860;27;20019;-80
2023/06/07 08:44:58;;;;;;;3.65;2.80;;;;;;;27.75;54.44;97452.75;5096100;28;20054;-79
2023/06/07 08:47:24;;;;;;;4.53;3.13;;;;;;;28.14;53.61;97446.59;5102999;27;20031;-80
2023/06/07 08:49:54;;;;;;;5.28;3.05;;;;;;;28.13;51.70;97450.38;5116218;27;20561;-80
2023/06/07 08:52:20;;;;;;;4.40;3.00;;;;;;;28.44;52.41;97465.28;5111709;27;20023;-79
2023/06/07 08:54:47;;;;;;;5.85;2.92;;;;;;;29.42;49.96;97480.16;5115934;27;20037;-80
2023/06/07 08:57:19;;;;;;;8.48;3.85;;;;;;;30.14;49.72;97474.44;5110603;28;20493;-80
2023/06/07 08:59:45;;;;;;;;;;;;;;;30.35;50.55;97485.13;5131385;27;20045;-80
2023/06/07 09:02:15;;;;;;;6.43;3.15;;;;;;;31.03;49.51;97502.78;5128969;27;19998;-80
2023/06/07 09:04:41;;;;;;;14.27;3.85;;;;;;;30.88;48.82;97471.84;5133323;27;20026;-79
2023/06/07 09:07:07;;;;;;;4.78;2.90;;;;;;;30.73;47.78;97465.81;5116341;27;20118;-80
2023/06/07 09:09:35;;;;;;;8.20;3.00;;;;;;;29.12;51.64;97457.69;5133099;27;20442;-80
2023/06/07 09:12:00;;;;;;;6.80;2.75;;;;;;;30.28;50.26;97464.13;5125116;27;20554;-79
2023/06/07 09:14:28;;;;;;;39.70;22.55;;;;;;;30.18;52.23;97474.84;5097705;27;20019;-80
2023/06/07 09:16:55;;;;;;;7.10;3.90;;;;;;;28.92;59.89;97465.97;5115559;27;20050;-79
2023/06/07 09:19:40;;;;;;;6.10;3.28;;;;;;;29.24;62.29;97489.09;5115558;27;20019;-80
2023/06/07 09:22:07;;;;;;;12.30;4.70;;;;;;;29.85;62.77;97491.50;5099836;28;20020;-80
2023/06/07 09:24:34;;;;;;;9.02;3.63;;;;;;;30.07;63.16;97504.81;5103397;27;20084;-82
2023/06/07 09:27:00;;;;;;;9.20;3.00;;;;;;;30.27;61.11;97501.13;5099750;28;20451;-81
2023/06/07 09:29:28;;;;;;;6.03;3.00;;;;;;;29.87;62.06;97478.38;5114863;27;20022;-81
2023/06/07 09:31:56;;;;;;;8.23;3.38;;;;;;;30.52;59.72;97497.38;5110052;28;20027;-82
2023/06/07 09:34:28;;;;;;;7.07;2.90;;;;;;;29.54;58.76;97465.50;5095116;28;20028;-81
2023/06/07 09:36:56;;;;;;;4.05;2.75;;;;;;;29.35;61.39;97471.03;5103843;28;20024;-79
2023/06/07 09:39:26;;;;;;;6.47;3.03;;;;;;;29.75;60.95;97488.34;5112024;28;20523;-80
2023/06/07 09:41:56;;;;;;;7.05;3.25;;;;;;;30.57;57.77;97481.00;5113176;27;20546;-81
2023/06/07 09:44:22;;;;;;;5.30;3.10;;;;;;;31.52;54.48;97501.94;5115922;27;20056;-80
2023/06/07 09:46:47;;;;;;;9.18;3.60;;;;;;;32.43;53.21;97507.47;5115930;27;20019;-80
2023/06/07 09:49:13;;;;;;;7.43;3.20;;;;;;;33.04;50.17;97512.75;5094168;28;20132;-79
2023/06/07 09:51:40;;;;;;;4.82;3.03;;;;;;;32.04;52.83;97499.69;5122811;27;20036;-79
2023/06/07 09:54:07;;;;;;;8.55;3.55;;;;;;;31.41;58.59;97499.88;5123238;27;20432;-81
2023/06/07 09:56:38;;;;;;;7.10;3.75;;;;;;;31.00;60.90;97502.38;5115143;27;20180;-80
2023/06/07 09:59:07;;;;;;;8.77;4.33;;;;;;;30.67;63.84;97502.56;5113117;27;20118;-80
2023/06/07 10:01:33;;;;;;;9.60;3.65;;;;;;;29.81;67.90;97485.53;5119382;27;20265;-80
2023/06/07 10:04:01;;;;;;;6.38;3.65;;;;;;;28.82;75.47;97492.25;5104934;28;20388;-81
2023/06/07 10:06:29;;;;;;;12.10;3.42;;;;;;;30.06;73.91;97507.78;5102713;28;20037;-80
2023/06/07 10:08:57;;;;;;;7.03;3.42;;;;;;;30.15;70.94;97498.19;5106034;27;20041;-81
2023/06/07 10:11:23;;;;;;;4.00;2.83;;;;;;;30.84;69.41;97513.94;5114502;27;20023;-81
2023/06/07 10:13:48;;;;;;;7.57;3.53;;;;;;;30.95;70.02;97516.00;5098215;28;20501;-80
2023/06/07 10:16:16;;;;;;;4.18;3.17;;;;;;;30.21;74.27;97511.09;5100476;28;20467;-81
2023/06/07 10:18:42;;;;;;;5.82;3.08;;;;;;;30.14;73.84;97507.53;5102328;28;20047;-81
2023/06/07 10:21:17;;;;;;;6.07;3.22;;;;;;;29.82;76.93;97509.34;5117014;27;20027;-82
2023/06/07 10:23:57;;;;;;;8.75;3.95;;;;;;;28.98;80.79;97497.31;5129408;27;20436;-81
2023/06/07 10:26:41;;;;;;;14.95;4.20;;;;;;;29.60;82.78;97524.44;5114617;27;20076;-81
2023/06/07 10:29:08;;;;;;;10.75;3.90;;;;;;;29.63;77.23;97495.56;5112721;27;20027;-81
2023/06/07 10:31:51;;;;;;;14.05;3.95;;;;;;;29.53;81.04;97502.38;5127979;27;20095;-81
2023/06/07 10:34:18;;;;;;;7.30;4.80;;;;;;;29.79;76.27;97503.38;5114392;27;20059;-80
2023/06/07 10:36:44;;;;;;;6.90;3.33;;;;;;;28.86;79.73;97491.59;5125083;27;20594;-80
2023/06/07 10:39:11;;;;;;;7.47;3.75;;;;;;;29.19;82.14;97516.41;5093601;28;20051;-81
2023/06/07 10:41:37;;;;;;;7.45;3.30;;;;;;;28.97;82.13;97506.66;5109685;27;20071;-81
2023/06/07 10:44:03;;;;;;;7.22;3.85;;;;;;;29.53;79.21;97505.16;5105526;27;20392;-81
2023/06/07 10:46:29;;;;;;;7.32;4.18;;;;;;;29.70;79.38;97510.19;5108578;28;20026;-81
2023/06/07 10:48:59;;;;;;;6.05;4.20;;;;;;;29.43;81.01;97515.78;5093604;28;20083;-81
2023/06/07 10:51:51;;;;;;;12.18;3.65;;;;;;;29.41;81.33;97519.81;5114086;27;20114;-81
2023/06/07 10:54:33;;;;;;;7.63;3.78;;;;;;;28.69;87.14;97528.03;5130990;27;20031;-80
2023/06/07 10:56:59;;;;;;;5.57;3.50;;;;;;;28.04;89.68;97512.13;5097363;28;20019;-81
2023/06/07 10:59:25;;;;;;;10.70;3.90;;;;;;;27.54;92.29;97505.94;5130729;27;20050;-80
2023/06/07 11:01:54;;;;;;;8.38;3.75;;;;;;;26.27;99.37;97512.38;5105796;28;20517;-80
2023/06/07 11:04:37;;;;;;;19.17;4.50;;;;;;;26.02;100.00;97532.97;5093617;28;20024;-80
2023/06/07 11:07:28;;;;;;;8.05;4.65;;;;;;;26.34;100.00;97535.25;5126462;27;20118;-82
2023/06/07 11:10:00;;;;;;;6.20;3.72;;;;;;;26.62;100.00;97531.75;5113905;28;20100;-81
2023/06/07 11:12:52;;;;;;;;;;;;;;;26.62;100.00;97531.75;5131236;27;20114;-81
2023/06/07 11:15:18;;;;;;;8.33;4.10;;;;;;;26.53;100.00;97538.41;5107608;27;19912;-81
2023/06/07 11:18:08;;;;;;;7.13;4.40;;;;;;;25.77;100.00;97542.53;5118426;27;20078;-78
2023/06/07 11:20:37;;;;;;;12.30;6.30;;;;;;;26.12;100.00;97547.19;5110358;28;20030;-81
2023/06/07 11:23:31;;;;;;;8.55;3.92;;;;;;;26.21;100.00;97537.84;5109752;28;20042;-79
2023/06/07 11:26:06;;;;;;;11.75;3.92;;;;;;;26.61;100.00;97552.03;5110053;28;20435;-80
2023/06/07 11:28:33;;;;;;;7.13;3.80;;;;;;;26.58;100.00;97535.94;5093338;28;20027;-81